Time;durP1;ratioP1;P1;durP2;ratioP2;P2;SDS_P1;SDS_P2;PMS_P1;PMS_P2;Temp;Humidity;BMP_temperature;BMP_pressure;BME280_temperature;BME280_humidity;BME280_pressure;Samples;Min_cycle;Max_cycle;Signal;HPM_P1;HPM_P2
2024/01/02 00:01:47;;;;;;;5.53;2.23;;;4.60;99.90;;;;;;4193528;28;20078;-59
2024/01/02 00:03:48;;;;;;;4.97;2.50;;;4.60;99.90;;;;;;4192673;28;20036;-59
2024/01/02 00:05:49;;;;;;;5.63;2.90;;;4.60;99.90;;;;;;4192778;28;20041;-60
2024/01/02 00:07:50;;;;;;;5.40;2.70;;;4.60;99.90;;;;;;4175209;28;20382;-60
2024/01/02 00:09:51;;;;;;;4.73;2.60;;;4.60;99.90;;;;;;4191549;28;20036;-60
2024/01/02 00:11:53;;;;;;;7.20;3.07;;;4.60;99.90;;;;;;4192348;28;20044;-60
2024/01/02 00:13:54;;;;;;;5.53;3.27;;;4.60;99.90;;;;;;4192613;28;20106;-60
2024/01/02 00:15:55;;;;;;;5.87;2.90;;;4.60;99.90;;;;;;4193246;28;20037;-60
2024/01/02 00:17:56;;;;;;;6.63;3.77;;;4.50;99.90;;;;;;4192642;28;20032;-60
2024/01/02 00:19:57;;;;;;;6.00;3.43;;;4.50;99.90;;;;;;4192582;28;20439;-60
2024/01/02 00:21:58;;;;;;;4.60;2.70;;;4.50;99.90;;;;;;4192069;28;20485;-60
2024/01/02 00:24:01;;;;;;;3.80;2.67;;;4.40;99.90;;;;;;4192512;28;20090;-60
2024/01/02 00:26:03;;;;;;;4.47;2.47;;;4.40;99.90;;;;;;4193401;28;20029;-60
2024/01/02 00:28:04;;;;;;;3.77;2.40;;;4.40;99.90;;;;;;4192693;28;20477;-60
2024/01/02 00:30:06;;;;;;;4.60;2.70;;;4.40;99.90;;;;;;4191804;28;20045;-60
2024/01/02 00:32:07;;;;;;;5.67;2.97;;;4.40;99.90;;;;;;4192816;28;20040;-60
2024/01/02 00:34:08;;;;;;;5.37;2.93;;;4.30;99.90;;;;;;4191984;28;21667;-59
2024/01/02 00:36:11;;;;;;;6.20;3.07;;;4.30;99.90;;;;;;4191423;28;20497;-60
2024/01/02 00:38:12;;;;;;;7.60;2.77;;;4.30;99.90;;;;;;4192526;28;20032;-60
2024/01/02 00:40:13;;;;;;;3.87;2.40;;;4.30;99.90;;;;;;4192222;28;20522;-60
2024/01/02 00:42:14;;;;;;;7.07;3.40;;;4.30;99.90;;;;;;4192876;28;20044;-60
2024/01/02 00:44:16;;;;;;;7.67;3.10;;;4.30;99.90;;;;;;4192599;28;20105;-60
2024/01/02 00:46:17;;;;;;;4.70;2.80;;;4.30;99.90;;;;;;4192426;28;20037;-60
2024/01/02 00:48:18;;;;;;;6.83;3.60;;;4.30;99.90;;;;;;4192194;28;20473;-61
2024/01/02 00:50:21;;;;;;;5.63;3.17;;;4.20;99.90;;;;;;4192591;28;20032;-60
2024/01/02 00:52:22;;;;;;;6.50;3.10;;;4.20;99.90;;;;;;4192975;28;20081;-60
2024/01/02 00:54:23;;;;;;;5.37;3.63;;;4.10;99.90;;;;;;4192157;28;20044;-61
2024/01/02 00:56:25;;;;;;;5.60;3.33;;;4.20;99.90;;;;;;4191520;28;20072;-60
2024/01/02 00:58:26;;;;;;;6.03;3.43;;;4.10;99.90;;;;;;4192473;28;20064;-60
2024/01/02 01:00:28;;;;;;;5.50;3.37;;;4.10;99.90;;;;;;4192650;28;20489;-61
2024/01/02 01:02:29;;;;;;;6.33;3.50;;;4.10;99.90;;;;;;4192797;28;20025;-61
2024/01/02 01:04:30;;;;;;;8.13;4.10;;;4.00;99.90;;;;;;4191699;28;20052;-62
2024/01/02 01:06:31;;;;;;;8.80;3.27;;;4.00;99.90;;;;;;4192022;28;20044;-61
2024/01/02 01:08:32;;;;;;;6.03;3.27;;;4.00;99.90;;;;;;4191326;28;20040;-59
2024/01/02 01:10:33;;;;;;;5.70;3.03;;;4.00;99.90;;;;;;4193375;28;20422;-61
2024/01/02 01:12:35;;;;;;;5.20;2.87;;;4.00;99.90;;;;;;4193135;28;20024;-59
2024/01/02 01:14:36;;;;;;;5.87;3.50;;;3.90;99.90;;;;;;4192415;28;20891;-60
2024/01/02 01:16:38;;;;;;;7.47;3.50;;;3.90;99.90;;;;;;4173951;28;20057;-60
2024/01/02 01:18:39;;;;;;;6.90;3.97;;;3.90;99.90;;;;;;4192265;28;20040;-61
2024/01/02 01:20:40;;;;;;;7.27;3.87;;;3.90;99.90;;;;;;4192681;28;20484;-61
2024/01/02 01:22:41;;;;;;;7.37;3.83;;;3.80;99.90;;;;;;4191342;28;20028;-61
2024/01/02 01:24:42;;;;;;;7.20;4.07;;;3.80;99.90;;;;;;4192636;28;20036;-61
2024/01/02 01:26:44;;;;;;;5.97;3.33;;;3.80;99.90;;;;;;4191968;28;20477;-61
2024/01/02 01:28:45;;;;;;;5.97;3.30;;;3.80;99.90;;;;;;4193266;28;20094;-60
2024/01/02 01:30:47;;;;;;;8.43;4.03;;;3.80;99.90;;;;;;4193322;28;20090;-62
2024/01/02 01:32:48;;;;;;;5.30;2.97;;;3.80;99.90;;;;;;4195672;28;20052;-61
2024/01/02 01:34:49;;;;;;;6.27;3.57;;;3.70;99.90;;;;;;4195144;28;20442;-60
2024/01/02 01:36:50;;;;;;;6.67;4.00;;;3.70;99.90;;;;;;4196525;28;20036;-61
2024/01/02 01:38:51;;;;;;;8.27;4.63;;;3.60;99.90;;;;;;4194939;28;20036;-61
2024/01/02 01:40:52;;;;;;;8.57;4.73;;;3.50;99.90;;;;;;4195586;28;20067;-61
2024/01/02 01:42:53;;;;;;;7.50;4.80;;;3.30;99.90;;;;;;4195915;28;20070;-61
2024/01/02 01:44:55;;;;;;;8.80;4.83;;;3.20;99.90;;;;;;4196246;28;20070;-62
2024/01/02 01:46:56;;;;;;;12.83;5.20;;;3.10;99.90;;;;;;4195285;28;20277;-60
2024/01/02 01:48:58;;;;;;;12.37;5.20;;;3.10;99.90;;;;;;4195163;28;20358;-61
2024/01/02 01:50:59;;;;;;;10.70;5.90;;;3.10;99.90;;;;;;4195303;28;20274;-60
2024/01/02 01:53:02;;;;;;;10.73;6.13;;;3.00;99.90;;;;;;4194912;28;20064;-61
2024/01/02 01:55:05;;;;;;;12.43;5.33;;;3.00;99.90;;;;;;4195570;28;20497;-61
2024/01/02 01:57:06;;;;;;;11.80;5.57;;;3.00;99.90;;;;;;4195008;28;20078;-60
2024/01/02 01:59:09;;;;;;;11.73;5.80;;;2.90;99.90;;;;;;4195337;28;20874;-60
2024/01/02 02:01:10;;;;;;;13.23;6.00;;;2.90;99.90;;;;;;4195585;28;20326;-61
2024/01/02 02:03:13;;;;;;;8.93;5.07;;;2.80;99.90;;;;;;4194852;28;20289;-61
2024/01/02 02:05:17;;;;;;;8.80;5.57;;;2.80;99.90;;;;;;4195516;28;20849;-61
2024/01/02 02:07:18;;;;;;;11.03;6.00;;;2.80;99.90;;;;;;4195149;28;20269;-60
2024/01/02 02:09:19;;;;;;;14.87;6.90;;;2.80;99.90;;;;;;4194660;28;20266;-60
2024/01/02 02:11:20;;;;;;;7.77;4.80;;;2.70;99.90;;;;;;4195934;28;20261;-61
2024/01/02 02:13:22;;;;;;;9.33;5.20;;;2.70;99.90;;;;;;4195619;28;20315;-60
2024/01/02 02:15:23;;;;;;;10.13;5.43;;;2.70;99.90;;;;;;4195526;28;20342;-60
2024/01/02 02:17:28;;;;;;;9.50;5.50;;;2.60;99.90;;;;;;4177438;28;20308;-61
2024/01/02 02:19:29;;;;;;;9.40;4.93;;;2.60;99.90;;;;;;4195405;28;20293;-59
2024/01/02 02:21:33;;;;;;;8.17;4.80;;;2.50;99.90;;;;;;4194878;28;20273;-60
2024/01/02 02:23:34;;;;;;;7.23;4.40;;;2.50;99.90;;;;;;4194328;28;20319;-60
2024/01/02 02:25:36;;;;;;;9.97;5.33;;;2.50;99.90;;;;;;4195221;28;20266;-60
2024/01/02 02:27:37;;;;;;;9.37;5.43;;;2.60;99.90;;;;;;4195385;28;20299;-59
2024/01/02 02:29:38;;;;;;;9.53;5.27;;;2.60;99.90;;;;;;4194620;28;20339;-60
2024/01/02 02:31:39;;;;;;;9.43;5.37;;;2.60;99.90;;;;;;4193739;28;20696;-60
2024/01/02 02:33:40;;;;;;;10.17;5.03;;;2.60;99.90;;;;;;4195640;28;20265;-61
2024/01/02 02:35:42;;;;;;;8.90;5.03;;;2.50;99.90;;;;;;4193658;28;20668;-61
2024/01/02 02:37:43;;;;;;;8.23;4.87;;;2.50;99.90;;;;;;4193974;28;20269;-60
2024/01/02 02:39:44;;;;;;;8.27;4.93;;;2.50;99.90;;;;;;4194533;28;20297;-61
2024/01/02 02:41:45;;;;;;;7.77;4.50;;;2.50;99.90;;;;;;4193115;28;20327;-61
2024/01/02 02:43:46;;;;;;;11.80;4.17;;;2.50;99.90;;;;;;4193910;28;20269;-60
2024/01/02 02:45:47;;;;;;;7.83;3.97;;;2.50;99.90;;;;;;4176657;28;20288;-60
2024/01/02 02:47:49;;;;;;;7.17;3.67;;;2.50;99.90;;;;;;4193602;28;20273;-60
2024/01/02 02:49:51;;;;;;;6.67;4.27;;;2.50;99.90;;;;;;4194203;28;20266;-60
2024/01/02 02:51:53;;;;;;;6.63;3.60;;;2.50;99.90;;;;;;4194946;28;20257;-60
2024/01/02 02:53:54;;;;;;;7.57;3.70;;;2.50;99.90;;;;;;4195207;28;20253;-60
2024/01/02 02:55:55;;;;;;;6.63;3.90;;;2.50;99.90;;;;;;4195117;28;20262;-60
2024/01/02 02:57:56;;;;;;;8.40;4.90;;;2.50;99.90;;;;;;4195190;28;20307;-60
2024/01/02 02:59:57;;;;;;;8.70;4.53;;;2.50;99.90;;;;;;4194523;28;20293;-60
2024/01/02 03:01:58;;;;;;;9.67;4.90;;;2.40;99.90;;;;;;4194917;28;20732;-60
2024/01/02 03:04:00;;;;;;;10.00;4.57;;;2.40;99.90;;;;;;4194891;28;20285;-60
2024/01/02 03:06:01;;;;;;;7.63;4.50;;;2.40;99.90;;;;;;4194115;28;20327;-59
2024/01/02 03:08:03;;;;;;;9.50;4.43;;;2.40;99.90;;;;;;4194186;28;20258;-59
2024/01/02 03:10:05;;;;;;;7.17;4.20;;;2.40;99.90;;;;;;4193638;28;20285;-60
2024/01/02 03:12:06;;;;;;;9.60;4.93;;;2.30;99.90;;;;;;4194217;28;20326;-60
2024/01/02 03:14:07;;;;;;;10.00;4.93;;;2.30;99.90;;;;;;4194439;28;20330;-59
2024/01/02 03:16:09;;;;;;;7.43;3.70;;;2.30;99.90;;;;;;4194777;28;20269;-60
2024/01/02 03:18:10;;;;;;;6.67;4.30;;;2.30;99.90;;;;;;4194655;28;20307;-58
2024/01/02 03:20:12;;;;;;;7.13;3.90;;;2.20;99.90;;;;;;4193681;28;20297;-61
2024/01/02 03:22:13;;;;;;;5.07;3.40;;;2.20;99.90;;;;;;4193962;28;20676;-60
2024/01/02 03:24:14;;;;;;;6.67;3.43;;;2.20;99.90;;;;;;4175869;28;20705;-60
2024/01/02 03:26:15;;;;;;;8.40;4.37;;;2.10;99.90;;;;;;4194097;28;20753;-60
2024/01/02 03:28:16;;;;;;;10.53;3.93;;;2.10;99.90;;;;;;4193418;28;20327;-59
2024/01/02 03:30:18;;;;;;;6.33;3.43;;;2.10;99.90;;;;;;4193806;28;20327;-60
2024/01/02 03:32:19;;;;;;;6.17;3.90;;;2.00;99.90;;;;;;4193397;28;20319;-60
2024/01/02 03:34:20;;;;;;;8.00;3.60;;;2.00;99.90;;;;;;4194024;28;21375;-60
2024/01/02 03:36:21;;;;;;;8.53;4.57;;;2.00;99.90;;;;;;4193085;28;20312;-60
2024/01/02 03:38:23;;;;;;;7.73;4.67;;;2.00;99.90;;;;;;4193754;28;20322;-60
2024/01/02 03:40:24;;;;;;;7.70;5.23;;;2.00;99.90;;;;;;4192982;28;20350;-60
2024/01/02 03:42:25;;;;;;;11.13;4.90;;;2.00;99.90;;;;;;4193433;28;20281;-59
2024/01/02 03:44:26;;;;;;;9.07;5.50;;;1.90;99.90;;;;;;4194036;28;20315;-60
2024/01/02 03:46:27;;;;;;;9.83;5.00;;;1.90;99.90;;;;;;4193174;28;20266;-61
2024/01/02 03:48:29;;;;;;;11.13;5.73;;;1.80;99.90;;;;;;4193085;28;20334;-60
2024/01/02 03:50:30;;;;;;;14.37;5.90;;;1.80;99.90;;;;;;4194308;28;20327;-59
2024/01/02 03:52:31;;;;;;;12.87;6.00;;;1.80;99.90;;;;;;4193486;28;20289;-60
2024/01/02 03:54:32;;;;;;;10.03;5.03;;;1.70;99.90;;;;;;4193074;28;20273;-60
2024/01/02 03:56:34;;;;;;;13.63;6.10;;;1.70;99.90;;;;;;4193670;28;20327;-59
2024/01/02 03:58:36;;;;;;;12.63;5.73;;;1.70;99.90;;;;;;4193712;28;20269;-60
2024/01/02 04:00:37;;;;;;;11.57;6.83;;;1.60;99.90;;;;;;4193362;28;20297;-60
2024/01/02 04:02:38;;;;;;;11.23;5.50;;;1.60;99.90;;;;;;4193568;28;20269;-59
2024/01/02 04:04:39;;;;;;;10.67;7.00;;;1.60;99.90;;;;;;4192724;28;20761;-60
2024/01/02 04:06:40;;;;;;;12.57;6.30;;;1.60;99.90;;;;;;4192893;28;20311;-59
2024/01/02 04:08:43;;;;;;;7.90;4.83;;;1.60;99.90;;;;;;4193454;28;20282;-60
2024/01/02 04:10:44;;;;;;;9.43;5.10;;;1.60;99.90;;;;;;4192778;28;20676;-60
2024/01/02 04:12:45;;;;;;;9.00;5.80;;;1.60;99.90;;;;;;4193321;28;20273;-61
2024/01/02 04:14:47;;;;;;;7.97;4.60;;;1.60;99.90;;;;;;4192438;28;20273;-60
2024/01/02 04:16:48;;;;;;;7.37;3.97;;;1.50;99.90;;;;;;4192748;28;20295;-60
2024/01/02 04:18:50;;;;;;;10.67;4.43;;;1.60;99.90;;;;;;4192892;28;20323;-60
2024/01/02 04:20:51;;;;;;;10.87;5.53;;;1.50;99.90;;;;;;4192777;28;20290;-60
2024/01/02 04:22:54;;;;;;;8.50;5.27;;;1.50;99.90;;;;;;4193813;28;20318;-58
2024/01/02 04:24:55;;;;;;;10.83;5.57;;;1.50;99.90;;;;;;4192477;28;20366;-60
2024/01/02 04:26:56;;;;;;;10.53;6.10;;;1.50;99.90;;;;;;4193988;28;20280;-60
2024/01/02 04:28:58;;;;;;;9.53;5.30;;;1.50;99.90;;;;;;4192709;28;20819;-61
2024/01/02 04:31:00;;;;;;;12.23;5.70;;;1.50;99.90;;;;;;4192520;28;20281;-60
2024/01/02 04:33:01;;;;;;;12.40;6.47;;;1.50;99.90;;;;;;4192455;28;20336;-60
2024/01/02 04:35:02;;;;;;;12.03;6.40;;;1.50;99.90;;;;;;4192304;28;20310;-60
2024/01/02 04:37:03;;;;;;;13.07;6.50;;;1.50;99.90;;;;;;4193213;28;20312;-60
2024/01/02 04:39:04;;;;;;;12.50;6.30;;;1.50;99.90;;;;;;4192909;28;20315;-61
2024/01/02 04:41:06;;;;;;;7.87;5.40;;;1.50;99.90;;;;;;4193110;28;20289;-61
2024/01/02 04:43:07;;;;;;;11.73;6.17;;;1.50;99.90;;;;;;4193553;28;20269;-59
2024/01/02 04:45:09;;;;;;;10.83;6.07;;;1.50;99.90;;;;;;4193085;28;20298;-59
2024/01/02 04:47:10;;;;;;;11.17;5.47;;;1.50;99.90;;;;;;4192347;28;20358;-61
2024/01/02 04:49:13;;;;;;;11.30;5.57;;;1.50;99.90;;;;;;4192002;28;20327;-60
2024/01/02 04:51:14;;;;;;;12.97;6.57;;;1.50;99.90;;;;;;4192454;28;20282;-60
2024/01/02 04:53:15;;;;;;;10.33;5.70;;;1.60;99.90;;;;;;4192135;28;20270;-61
2024/01/02 04:55:16;;;;;;;11.60;6.47;;;1.60;99.90;;;;;;4193484;28;20261;-59
2024/01/02 04:57:18;;;;;;;13.33;6.43;;;1.60;99.90;;;;;;4192661;28;20257;-61
2024/01/02 04:59:19;;;;;;;11.27;6.37;;;1.60;99.90;;;;;;4192955;28;20674;-60
2024/01/02 05:01:20;;;;;;;10.30;5.97;;;1.60;99.90;;;;;;4192202;28;20301;-61
2024/01/02 05:03:21;;;;;;;12.67;7.13;;;1.60;99.90;;;;;;4193113;28;20281;-60
2024/01/02 05:05:22;;;;;;;11.93;6.17;;;1.60;99.90;;;;;;4191722;28;20253;-60
2024/01/02 05:07:23;;;;;;;11.50;6.73;;;1.60;99.90;;;;;;4193024;28;20710;-61
2024/01/02 05:09:24;;;;;;;12.10;6.63;;;1.60;99.90;;;;;;4191538;28;20315;-61
2024/01/02 05:11:26;;;;;;;12.37;7.17;;;1.60;99.90;;;;;;4192650;28;20673;-61
2024/01/02 05:13:27;;;;;;;12.23;6.33;;;1.60;99.90;;;;;;4193114;28;20292;-61
2024/01/02 05:15:28;;;;;;;13.80;7.23;;;1.60;99.90;;;;;;4190972;28;20766;-60
2024/01/02 05:17:29;;;;;;;14.30;6.73;;;1.60;99.90;;;;;;4193470;28;20269;-61
2024/01/02 05:19:30;;;;;;;14.27;7.20;;;1.60;99.90;;;;;;4191539;28;20314;-61
2024/01/02 05:21:32;;;;;;;12.97;6.63;;;1.70;99.90;;;;;;4191894;28;20301;-61
2024/01/02 05:23:33;;;;;;;9.37;5.73;;;1.70;99.90;;;;;;4192410;28;20668;-61
2024/01/02 05:25:35;;;;;;;9.53;5.03;;;1.70;99.90;;;;;;4192755;28;20269;-61
2024/01/02 05:27:36;;;;;;;12.77;7.67;;;1.70;99.90;;;;;;4192472;28;20281;-61
2024/01/02 05:29:37;;;;;;;15.03;8.13;;;1.70;99.90;;;;;;4192796;28;20382;-60
2024/01/02 05:31:38;;;;;;;18.63;7.50;;;1.70;99.90;;;;;;4192142;28;20269;-60
2024/01/02 05:33:39;;;;;;;14.30;7.70;;;1.70;99.90;;;;;;4192691;28;20269;-61
2024/01/02 05:35:40;;;;;;;15.70;8.77;;;1.70;99.90;;;;;;4192260;28;20269;-59
2024/01/02 05:37:42;;;;;;;16.50;8.13;;;1.80;99.90;;;;;;4191935;28;20738;-60
2024/01/02 05:39:43;;;;;;;16.07;8.33;;;1.70;99.90;;;;;;4192118;28;20261;-59
2024/01/02 05:41:44;;;;;;;15.73;7.60;;;1.70;99.90;;;;;;4191532;28;20334;-60
2024/01/02 05:43:45;;;;;;;17.17;8.63;;;1.70;99.90;;;;;;4192444;28;20279;-60
2024/01/02 05:45:46;;;;;;;13.97;7.77;;;1.70;99.90;;;;;;4191677;28;20265;-60
2024/01/02 05:47:48;;;;;;;15.57;8.27;;;1.70;99.90;;;;;;4191835;28;20269;-61
2024/01/02 05:49:49;;;;;;;15.63;7.67;;;1.60;99.90;;;;;;4191845;28;20273;-59
2024/01/02 05:51:50;;;;;;;15.90;7.80;;;1.60;99.90;;;;;;4192820;28;20330;-60
2024/01/02 05:53:51;;;;;;;12.50;6.80;;;1.60;99.90;;;;;;4192809;28;20265;-60
2024/01/02 05:55:52;;;;;;;12.53;7.47;;;1.70;99.90;;;;;;4192412;28;20269;-60
2024/01/02 05:57:53;;;;;;;18.87;7.37;;;1.70;99.90;;;;;;4192203;28;20299;-60
2024/01/02 05:59:54;;;;;;;15.13;7.23;;;1.70;99.90;;;;;;4192016;28;20270;-60
2024/01/02 06:01:55;;;;;;;13.27;7.30;;;1.70;99.90;;;;;;4191320;28;20330;-60
2024/01/02 06:03:57;;;;;;;14.37;7.47;;;1.70;99.90;;;;;;4190886;28;20624;-60
2024/01/02 06:05:58;;;;;;;12.93;6.57;;;1.70;99.90;;;;;;4191922;28;20342;-60
2024/01/02 06:07:59;;;;;;;10.50;6.30;;;1.70;99.90;;;;;;4191747;28;20269;-60
2024/01/02 06:10:00;;;;;;;14.37;6.70;;;1.70;99.90;;;;;;4192054;28;20265;-60
2024/01/02 06:12:01;;;;;;;14.33;6.57;;;1.70;99.90;;;;;;4190920;28;20281;-60
2024/01/02 06:14:02;;;;;;;9.07;5.07;;;1.70;99.90;;;;;;4191181;28;20269;-60
2024/01/02 06:16:04;;;;;;;8.60;5.70;;;1.80;99.90;;;;;;4192413;28;20307;-59
2024/01/02 06:18:06;;;;;;;10.37;5.03;;;1.80;99.90;;;;;;4195669;28;20315;-59
2024/01/02 06:20:09;;;;;;;9.83;5.57;;;1.80;99.90;;;;;;4195166;28;20287;-59
2024/01/02 06:22:10;;;;;;;12.30;5.40;;;1.80;99.90;;;;;;4195495;28;20257;-60
2024/01/02 06:24:12;;;;;;;11.03;5.10;;;1.70;99.90;;;;;;4194843;28;20269;-59
2024/01/02 06:26:13;;;;;;;10.93;5.90;;;1.80;99.90;;;;;;4194872;28;20269;-60
2024/01/02 06:28:15;;;;;;;9.57;5.97;;;1.80;99.90;;;;;;4194356;28;20327;-59
2024/01/02 06:30:17;;;;;;;10.50;5.67;;;1.80;99.90;;;;;;4194502;28;20319;-61
2024/01/02 06:32:18;;;;;;;9.10;5.17;;;1.80;99.90;;;;;;4176682;28;21090;-60
2024/01/02 06:34:19;;;;;;;10.80;5.23;;;1.90;99.90;;;;;;4194371;28;20277;-60
2024/01/02 06:36:20;;;;;;;10.60;5.70;;;1.80;99.90;;;;;;4193093;28;20285;-59
2024/01/02 06:38:21;;;;;;;12.23;6.00;;;1.80;99.90;;;;;;4194272;28;20327;-60
2024/01/02 06:40:23;;;;;;;10.30;5.90;;;1.80;99.90;;;;;;4194611;28;20289;-60
2024/01/02 06:42:24;;;;;;;13.90;7.27;;;1.90;99.90;;;;;;4192965;28;20270;-59
2024/01/02 06:44:25;;;;;;;14.03;6.70;;;1.90;99.90;;;;;;4194250;28;20281;-60
2024/01/02 06:46:26;;;;;;;9.90;5.10;;;1.90;99.90;;;;;;4194720;28;20331;-58
2024/01/02 06:48:27;;;;;;;9.90;5.70;;;1.90;99.90;;;;;;4195191;28;20680;-60
2024/01/02 06:50:28;;;;;;;13.97;5.83;;;1.90;99.90;;;;;;4194961;28;20291;-60
2024/01/02 06:52:29;;;;;;;10.97;5.83;;;1.90;99.90;;;;;;4193826;28;20335;-60
2024/01/02 06:54:31;;;;;;;9.37;5.07;;;1.90;99.90;;;;;;4194769;28;20384;-60
2024/01/02 06:56:32;;;;;;;10.13;5.57;;;1.90;99.90;;;;;;4176689;28;20328;-59
2024/01/02 06:58:34;;;;;;;8.33;4.57;;;1.90;99.90;;;;;;4194615;28;20315;-60
2024/01/02 07:00:35;;;;;;;7.23;4.67;;;1.90;99.90;;;;;;4194137;28;20296;-60
2024/01/02 07:02:36;;;;;;;10.70;5.27;;;1.90;99.90;;;;;;4193759;28;20779;-59
2024/01/02 07:04:38;;;;;;;7.03;3.90;;;1.90;99.90;;;;;;4194268;28;20269;-59
2024/01/02 07:06:39;;;;;;;8.50;4.50;;;1.90;99.90;;;;;;4193932;28;20327;-60
2024/01/02 07:08:40;;;;;;;8.67;4.23;;;2.00;99.90;;;;;;4192964;28;20269;-60
2024/01/02 07:10:41;;;;;;;7.00;4.70;;;2.00;99.90;;;;;;4194880;28;20319;-60
2024/01/02 07:12:42;;;;;;;8.77;4.80;;;2.00;99.90;;;;;;4193443;28;20319;-60
2024/01/02 07:14:44;;;;;;;10.30;4.67;;;2.00;99.90;;;;;;4194737;28;20382;-59
2024/01/02 07:16:46;;;;;;;8.43;4.67;;;2.00;99.90;;;;;;4193130;28;20277;-60
2024/01/02 07:18:47;;;;;;;8.77;4.80;;;2.10;99.90;;;;;;4176475;28;20347;-60
2024/01/02 07:20:48;;;;;;;10.00;5.13;;;2.00;99.90;;;;;;4194091;28;20292;-60
2024/01/02 07:22:50;;;;;;;8.73;5.10;;;2.00;99.90;;;;;;4194794;28;20257;-59
2024/01/02 07:24:51;;;;;;;7.77;3.97;;;2.00;99.90;;;;;;4194450;28;20315;-60
2024/01/02 07:26:53;;;;;;;7.80;4.40;;;2.10;99.90;;;;;;4194099;28;20771;-59
2024/01/02 07:28:54;;;;;;;13.03;6.73;;;2.00;99.90;;;;;;4191501;28;20615;-61
2024/01/02 07:30:55;;;;;;;13.00;6.63;;;2.10;99.90;;;;;;4193258;28;20665;-60
2024/01/02 07:32:57;;;;;;;11.10;5.77;;;2.10;99.90;;;;;;4193485;28;20618;-57
2024/01/02 07:34:58;;;;;;;10.33;5.97;;;2.00;99.90;;;;;;4192911;28;20744;-60
2024/01/02 07:36:59;;;;;;;13.00;6.53;;;2.00;99.90;;;;;;4193920;28;20307;-60
2024/01/02 07:39:01;;;;;;;10.53;5.40;;;2.00;99.90;;;;;;4192794;28;20840;-60
2024/01/02 07:41:02;;;;;;;11.70;5.87;;;2.00;99.90;;;;;;4193450;28;20843;-60
2024/01/02 07:43:04;;;;;;;9.93;5.27;;;1.90;99.90;;;;;;4192866;28;20677;-61
2024/01/02 07:45:06;;;;;;;10.03;6.30;;;1.80;99.90;;;;;;4194143;28;20269;-60
2024/01/02 07:47:07;;;;;;;8.80;5.10;;;1.80;99.90;;;;;;4192885;28;20296;-60
2024/01/02 07:49:08;;;;;;;16.93;7.93;;;1.70;99.90;;;;;;4193247;28;20270;-61
2024/01/02 07:51:09;;;;;;;21.30;9.80;;;1.60;99.90;;;;;;4193508;28;20311;-60
2024/01/02 07:53:11;;;;;;;27.50;11.23;;;1.60;99.90;;;;;;4192445;28;21818;-61
2024/01/02 07:55:12;;;;;;;26.60;11.00;;;1.60;99.90;;;;;;4190778;28;20269;-61
2024/01/02 07:57:13;;;;;;;25.43;11.10;;;1.60;99.90;;;;;;4194132;28;20358;-60
2024/01/02 07:59:19;;;;;;;43.07;12.33;;;1.60;99.90;;;;;;4192020;28;20261;-60
2024/01/02 08:01:20;;;;;;;26.33;10.67;;;1.70;99.90;;;;;;4192588;28;20293;-61
2024/01/02 08:03:21;;;;;;;20.57;8.70;;;1.70;99.90;;;;;;4192868;28;21973;-60
2024/01/02 08:05:23;;;;;;;14.27;7.47;;;1.70;99.90;;;;;;4192994;28;20262;-61
2024/01/02 08:07:24;;;;;;;14.43;7.77;;;1.70;99.90;;;;;;4192457;28;20269;-60
2024/01/02 08:09:26;;;;;;;18.97;10.23;;;1.70;99.90;;;;;;4191231;28;20628;-61
2024/01/02 08:11:27;;;;;;;23.80;13.27;;;1.60;99.90;;;;;;4192948;28;20672;-61
2024/01/02 08:13:28;;;;;;;26.60;14.23;;;1.50;99.90;;;;;;4192714;28;20265;-61
2024/01/02 08:15:30;;;;;;;35.40;18.80;;;1.50;99.90;;;;;;4192451;28;20278;-62
2024/01/02 08:17:31;;;;;;;35.33;17.30;;;1.50;99.90;;;;;;4192685;28;20270;-61
2024/01/02 08:19:32;;;;;;;27.90;14.70;;;1.50;99.90;;;;;;4193431;28;20270;-61
2024/01/02 08:21:34;;;;;;;24.60;14.20;;;1.50;99.90;;;;;;4190987;28;20313;-61
2024/01/02 08:23:38;;;;;;;24.87;13.43;;;1.60;99.90;;;;;;4191915;28;20358;-61
2024/01/02 08:25:39;;;;;;;22.30;12.37;;;1.70;99.90;;;;;;4184787;28;20708;-62
2024/01/02 08:27:41;;;;;;;29.67;15.60;;;1.80;99.90;;;;;;4193025;28;20285;-61
2024/01/02 08:29:42;;;;;;;25.03;14.03;;;2.00;99.90;;;;;;4192991;28;20719;-61
2024/01/02 08:31:43;;;;;;;24.80;13.00;;;2.30;99.90;;;;;;4193552;28;20311;-61
2024/01/02 08:33:45;;;;;;;22.20;13.77;;;2.60;99.90;;;;;;4192787;28;20265;-61
2024/01/02 08:35:46;;;;;;;24.13;13.10;;;2.80;99.90;;;;;;4174502;28;20278;-59
2024/01/02 08:37:47;;;;;;;22.93;12.10;;;3.10;99.90;;;;;;4193469;28;20273;-59
2024/01/02 08:39:48;;;;;;;22.47;11.73;;;3.40;99.90;;;;;;4191998;28;20277;-60
2024/01/02 08:41:50;;;;;;;26.13;13.70;;;4.00;99.90;;;;;;4175654;28;20360;-58
2024/01/02 08:43:51;;;;;;;27.13;14.30;;;4.40;99.90;;;;;;4176597;28;20320;-60
2024/01/02 08:45:53;;;;;;;26.27;13.03;;;4.70;99.90;;;;;;4188792;28;20717;-61
2024/01/02 08:47:54;;;;;;;22.67;10.83;;;5.20;99.90;;;;;;4175026;28;20274;-56
2024/01/02 08:49:55;;;;;;;18.30;10.90;;;5.50;99.90;;;;;;4191733;28;20319;-61
2024/01/02 08:51:56;;;;;;;17.23;10.47;;;5.80;99.90;;;;;;4192154;28;20834;-60
2024/01/02 08:53:57;;;;;;;15.17;9.37;;;6.00;99.90;;;;;;4193262;28;20265;-61
2024/01/02 08:55:58;;;;;;;13.00;7.80;;;6.10;99.90;;;;;;4191059;28;20273;-60
2024/01/02 08:58:00;;;;;;;17.17;8.83;;;6.10;99.90;;;;;;4190124;28;20757;-61
2024/01/02 09:00:01;;;;;;;13.53;8.10;;;6.10;99.90;;;;;;4178795;28;20037;-60
2024/01/02 09:02:02;;;;;;;16.70;7.53;;;6.00;99.90;;;;;;4175143;28;20091;-60
2024/01/02 09:04:04;;;;;;;12.73;7.03;;;6.00;99.90;;;;;;4190575;28;20056;-60
2024/01/02 09:06:05;;;;;;;14.03;7.27;;;6.00;99.90;;;;;;4191941;28;20045;-57
2024/01/02 09:08:06;;;;;;;18.10;7.70;;;6.00;99.90;;;;;;4192135;28;20078;-56
2024/01/02 09:10:08;;;;;;;10.83;6.40;;;6.30;99.90;;;;;;4191705;28;20378;-58
2024/01/02 09:12:10;;;;;;;10.03;5.87;;;6.50;99.90;;;;;;4193160;28;20045;-59
2024/01/02 09:14:11;;;;;;;11.57;6.57;;;6.40;99.90;;;;;;4192113;28;20041;-59
2024/01/02 09:16:12;;;;;;;12.20;5.67;;;6.10;99.90;;;;;;4192918;28;20090;-59
2024/01/02 09:18:13;;;;;;;12.73;5.83;;;5.80;99.90;;;;;;4192555;28;20082;-59
2024/01/02 09:20:14;;;;;;;11.03;5.40;;;5.50;99.90;;;;;;4192579;28;20408;-58
2024/01/02 09:22:16;;;;;;;9.90;5.27;;;5.40;99.90;;;;;;4191064;28;20052;-55
2024/01/02 09:24:18;;;;;;;9.73;5.63;;;5.50;99.90;;;;;;4192453;28;20380;-60
2024/01/02 09:26:22;;;;;;;7.87;5.20;;;5.70;99.90;;;;;;4191733;28;20505;-59
2024/01/02 09:28:23;;;;;;;12.13;5.77;;;5.80;99.90;;;;;;4192049;28;20041;-59
2024/01/02 09:30:24;;;;;;;10.47;5.53;;;5.80;99.90;;;;;;4191280;28;20036;-61
2024/01/02 09:32:26;;;;;;;9.50;4.90;;;6.00;99.90;;;;;;4190668;28;20495;-59
2024/01/02 09:34:27;;;;;;;10.90;5.77;;;6.10;99.90;;;;;;4192146;28;20032;-59
2024/01/02 09:36:29;;;;;;;10.00;5.17;;;6.30;99.90;;;;;;4190586;28;20045;-59
2024/01/02 09:38:30;;;;;;;8.87;4.80;;;6.50;99.90;;;;;;4190849;28;20074;-58
2024/01/02 09:40:59;;;;;;;9.93;4.97;;;6.60;99.90;;;;;;4192716;28;20024;-60
2024/01/02 09:43:27;;;;;;;12.17;5.90;;;6.70;99.90;;;;;;4191666;28;20016;-59
2024/01/02 09:45:41;;;;;;;13.63;5.60;;;6.80;99.90;;;;;;4190933;28;20029;-62
2024/01/02 09:48:27;;;;;;;14.30;5.77;;;6.90;99.90;;;;;;4191309;28;21640;-62
2024/01/02 09:50:35;;;;;;;14.57;5.93;;;6.80;99.90;;;;;;4191746;28;20037;-61
2024/01/02 09:53:04;;;;;;;7.27;4.97;;;6.70;99.90;;;;;;4195325;28;20075;-60
2024/01/02 09:55:35;;;;;;;8.17;5.00;;;6.80;99.90;;;;;;4194686;28;20361;-60
2024/01/02 09:57:55;;;;;;;;;;;6.60;99.90;;;;;;4196261;28;20082;-61
2024/01/02 10:00:12;;;;;;;9.40;5.77;;;6.50;99.90;;;;;;4193487;28;20359;-63
2024/01/02 10:02:50;;;;;;;11.17;5.43;;;6.30;99.90;;;;;;4195226;28;20075;-63
2024/01/02 10:05:03;;;;;;;13.57;7.33;;;6.20;99.90;;;;;;4195079;28;20052;-62
2024/01/02 10:07:42;;;;;;;11.87;6.53;;;6.10;99.90;;;;;;4195701;28;20078;-62
2024/01/02 10:09:52;;;;;;;17.43;7.13;;;6.20;99.90;;;;;;4194414;28;20512;-62
2024/01/02 10:12:06;;;;;;;14.20;8.02;;;6.20;99.90;;;;;;4195111;28;20106;-64
2024/01/02 10:14:21;;;;;;;14.43;7.83;;;6.00;99.90;;;;;;4193683;28;20440;-61
2024/01/02 10:16:34;;;;;;;17.07;8.43;;;5.90;99.90;;;;;;4194110;28;20090;-62
2024/01/02 10:18:49;;;;;;;12.43;6.67;;;5.80;99.90;;;;;;4194009;28;20382;-62
2024/01/02 10:21:28;;;;;;;13.93;7.10;;;5.80;99.90;;;;;;4194110;28;20040;-61
2024/01/02 10:23:54;;;;;;;12.47;6.97;;;5.80;99.90;;;;;;4193228;28;20053;-58
2024/01/02 10:25:59;;;;;;;11.80;6.23;;;5.90;99.90;;;;;;4195372;28;20037;-62
2024/01/02 10:28:15;;;;;;;14.13;7.73;;;5.90;99.90;;;;;;4194268;28;20053;-62
2024/01/02 10:30:22;;;;;;;13.47;7.03;;;5.90;99.90;;;;;;4177194;28;20033;-60
2024/01/02 10:32:47;;;;;;;13.27;7.00;;;6.00;99.90;;;;;;4177683;28;20567;-61
2024/01/02 10:35:14;;;;;;;13.93;7.33;;;6.10;99.90;;;;;;4147611;28;20041;-61
2024/01/02 10:37:19;;;;;;;13.30;6.73;;;6.20;99.90;;;;;;4185566;28;20086;-60
2024/01/02 10:39:40;;;;;;;12.60;6.77;;;6.20;99.90;;;;;;4193468;28;21129;-60
2024/01/02 10:42:22;;;;;;;11.33;6.67;;;6.30;99.90;;;;;;4177660;28;20049;-61
2024/01/02 10:45:20;;;;;;;13.87;6.50;;;6.30;99.90;;;;;;4168271;28;20032;-62